createdAt,value
2023-03-06T00:00:19.397Z,81.266667
2023-03-06T00:05:19.617Z,81.333333
2023-03-06T00:10:19.456Z,81.433333
2023-03-06T00:15:19.552Z,81.733333
2023-03-06T00:20:19.479Z,81.854167
2023-03-06T00:25:19.118Z,81.920833
2023-03-06T00:30:19.167Z,81.616667
2023-03-06T00:35:19.192Z,81.662500
2023-03-06T00:40:19.156Z,81.829167
2023-03-06T00:45:19.125Z,81.879167
2023-03-06T00:50:19.123Z,81.696000
2023-03-06T00:55:19.167Z,81.679167
2023-03-06T01:00:19.358Z,81.716667
2023-03-06T01:05:19.167Z,81.937500
2023-03-06T01:10:19.170Z,81.900000
2023-03-06T01:15:19.092Z,81.900000
2023-03-06T01:20:19.415Z,81.883333
2023-03-06T01:25:19.509Z,81.925000
2023-03-06T01:30:19.243Z,81.887500
2023-03-06T01:35:19.274Z,81.987500
2023-03-06T01:40:19.073Z,82.183333
2023-03-06T01:45:19.741Z,82.154167
2023-03-06T01:50:19.126Z,82.037500
2023-03-06T01:55:19.111Z,82.066667
2023-03-06T02:00:19.201Z,82.137500
2023-03-06T02:05:19.378Z,82.000000
2023-03-06T02:10:19.147Z,81.929167
2023-03-06T02:15:19.092Z,81.948000
2023-03-06T02:20:19.116Z,82.016667
2023-03-06T02:25:19.224Z,82.250000
2023-03-06T02:30:19.184Z,82.320833
2023-03-06T02:35:19.108Z,82.179167
2023-03-06T02:40:19.236Z,81.691667
2023-03-06T02:45:19.101Z,81.633333
2023-03-06T02:50:19.113Z,81.416667
2023-03-06T02:55:19.054Z,81.337500
2023-03-06T03:00:19.242Z,81.395833
2023-03-06T03:05:19.253Z,81.308333
2023-03-06T03:10:19.307Z,81.300000
2023-03-06T03:15:19.038Z,81.279167
2023-03-06T03:20:19.020Z,80.983333
2023-03-06T03:25:19.265Z,80.733333
2023-03-06T03:30:19.034Z,80.700000
2023-03-06T03:35:19.307Z,80.558333
2023-03-06T03:40:19.682Z,80.525000
2023-03-06T03:45:19.457Z,80.595833
2023-03-06T03:50:19.072Z,80.500000
2023-03-06T03:55:19.027Z,80.500000
2023-03-06T04:00:19.069Z,80.483333
2023-03-06T04:05:19.112Z,80.658333
2023-03-06T04:10:19.055Z,80.700000
2023-03-06T04:15:19.283Z,80.658333
2023-03-06T04:20:19.092Z,80.779167
2023-03-06T04:25:19.215Z,80.787500
2023-03-06T04:30:19.108Z,80.816667
2023-03-06T04:35:19.545Z,80.866667
2023-03-06T04:40:19.058Z,81.116667
2023-03-06T04:45:19.379Z,81.412500
2023-03-06T04:50:19.120Z,81.504167
2023-03-06T04:55:19.164Z,81.370833
2023-03-06T05:00:19.106Z,81.233333
2023-03-06T05:05:19.036Z,81.476000
2023-03-06T05:10:19.075Z,81.583333
2023-03-06T05:15:19.117Z,81.679167
2023-03-06T05:20:19.197Z,81.691667
2023-03-06T05:25:19.740Z,81.654167
2023-03-06T05:30:19.248Z,81.500000
2023-03-06T05:35:19.285Z,81.150000
2023-03-06T05:40:19.057Z,80.983333
2023-03-06T05:45:19.075Z,80.937500
2023-03-06T05:50:19.539Z,80.808333
2023-03-06T05:55:19.057Z,80.608333
2023-03-06T06:00:19.201Z,80.375000
2023-03-06T06:05:19.084Z,80.316667
2023-03-06T06:10:19.077Z,80.404167
2023-03-06T06:15:19.044Z,80.733333
2023-03-06T06:20:19.650Z,80.579167
2023-03-06T06:25:19.029Z,80.404167
2023-03-06T06:30:18.980Z,80.420000
2023-03-06T06:35:19.202Z,80.404167
2023-03-06T06:40:19.242Z,80.387500
2023-03-06T06:45:19.002Z,80.450000
2023-03-06T06:50:18.977Z,80.387500
2023-03-06T06:55:19.025Z,80.168000
2023-03-06T07:00:19.148Z,79.879167
2023-03-06T07:05:20.857Z,79.737500
2023-03-06T07:10:20.747Z,79.750000
2023-03-06T07:15:19.052Z,79.433333
2023-03-06T07:20:19.032Z,79.116667
2023-03-06T07:25:18.981Z,78.937500
2023-03-06T07:30:19.156Z,78.675000
2023-03-06T07:35:20.647Z,78.695833
2023-03-06T07:40:19.371Z,78.716667
2023-03-06T07:45:19.013Z,78.700000
2023-03-06T07:50:19.045Z,78.416667
2023-03-06T07:55:19.588Z,78.566667
2023-03-06T08:00:19.241Z,78.712500
2023-03-06T08:05:19.065Z,78.700000
2023-03-06T08:10:19.105Z,78.945833
2023-03-06T08:15:19.146Z,79.229167
2023-03-06T08:20:18.916Z,79.154167
2023-03-06T08:25:19.034Z,79.052000
2023-03-06T08:30:19.059Z,78.850000
2023-03-06T08:35:19.181Z,78.916667
2023-03-06T08:40:19.059Z,78.758333
2023-03-06T08:45:19.011Z,78.837500
2023-03-06T08:50:16.542Z,79.279167
2023-03-06T08:55:16.597Z,80.070833
2023-03-06T09:00:16.580Z,80.579167
2023-03-06T09:05:16.703Z,80.116667
2023-03-06T09:10:16.579Z,80.937500
2023-03-06T09:15:16.530Z,81.062500
2023-03-06T09:20:16.609Z,80.783333
2023-03-06T09:25:16.449Z,80.896000
2023-03-06T09:30:16.460Z,80.995833
2023-03-06T09:35:16.783Z,80.800000
2023-03-06T09:40:16.503Z,80.695833
2023-03-06T09:45:16.631Z,81.270833
2023-03-06T09:50:17.038Z,81.954167
2023-03-06T09:55:16.556Z,82.425000
2023-03-06T10:00:16.974Z,82.633333
2023-03-06T10:05:16.619Z,82.404000
2023-03-06T10:10:17.046Z,82.064000
2023-03-06T10:15:16.572Z,81.675000
2023-03-06T10:20:16.536Z,81.295833
2023-03-06T10:25:16.733Z,80.633333
2023-03-06T10:30:16.435Z,80.945833
2023-03-06T10:35:16.685Z,81.279167
2023-03-06T10:40:16.584Z,81.312000
2023-03-06T10:45:16.446Z,81.566667
2023-03-06T10:50:16.557Z,82.212500
2023-03-06T10:55:16.406Z,81.491667
2023-03-06T11:00:16.477Z,79.979167
2023-03-06T11:05:16.926Z,80.020833
2023-03-06T11:10:16.741Z,79.837500
2023-03-06T11:15:16.389Z,79.654167
2023-03-06T11:20:16.547Z,80.116667
2023-03-06T11:25:16.574Z,79.637500
2023-03-06T11:30:16.545Z,79.545833
2023-03-06T11:35:16.432Z,79.575000
2023-03-06T11:40:16.602Z,79.266667
2023-03-06T11:45:16.481Z,78.937500
2023-03-06T11:50:16.653Z,78.304167
2023-03-06T11:55:16.843Z,78.066667
2023-03-06T12:00:16.645Z,78.933333
2023-03-06T12:05:16.796Z,77.925000
2023-03-06T12:10:16.921Z,78.258333
2023-03-06T12:15:16.651Z,78.854167
2023-03-06T12:20:16.640Z,78.908333
2023-03-06T12:25:16.547Z,79.616667
2023-03-06T12:30:16.398Z,80.350000
2023-03-06T12:35:16.676Z,80.837500
2023-03-06T12:40:16.692Z,80.379167
2023-03-06T12:45:16.484Z,79.916667
2023-03-06T12:50:16.585Z,77.825000
2023-03-06T12:55:16.439Z,77.983333
2023-03-06T13:00:16.549Z,79.066667
2023-03-06T13:05:16.685Z,78.816667
2023-03-06T13:10:16.525Z,77.204167
2023-03-06T13:15:16.500Z,75.720833
2023-03-06T13:20:16.705Z,75.608333
2023-03-06T13:25:16.817Z,75.870833
2023-03-06T13:30:16.411Z,75.212500
2023-03-06T13:35:16.477Z,74.466667
2023-03-06T13:40:16.572Z,74.720833
2023-03-06T13:45:16.395Z,75.445833
2023-03-06T13:50:16.454Z,75.462500
2023-03-06T13:55:16.790Z,74.350000
2023-03-06T14:00:16.417Z,74.841667
2023-03-06T14:05:16.616Z,74.462500
2023-03-06T14:10:16.513Z,74.250000
2023-03-06T14:15:16.405Z,74.212500
2023-03-06T14:20:16.781Z,73.820833
2023-03-06T14:25:16.444Z,73.000000
2023-03-06T14:30:16.507Z,74.008333
2023-03-06T14:35:16.655Z,73.045833
2023-03-06T14:40:16.704Z,73.662500
2023-03-06T14:45:16.354Z,73.920000
2023-03-06T14:50:16.612Z,76.029167
2023-03-06T14:55:16.510Z,79.145833
2023-03-06T15:00:16.750Z,81.258333
2023-03-06T15:05:16.977Z,83.225000
2023-03-06T15:10:19.536Z,84.904167
2023-03-06T15:15:19.330Z,85.840000
2023-03-06T15:20:19.165Z,86.600000
2023-03-06T15:25:19.107Z,87.133333
2023-03-06T15:30:19.262Z,87.712500
2023-03-06T15:35:19.233Z,87.958333
2023-03-06T15:40:18.878Z,88.154167
2023-03-06T15:45:19.184Z,88.370833
2023-03-06T15:50:19.067Z,88.433333
2023-03-06T15:55:18.850Z,88.466667
2023-03-06T16:00:27.249Z,88.491667
2023-03-06T16:05:18.961Z,88.356000
2023-03-06T16:10:18.889Z,88.188000
2023-03-06T16:15:18.997Z,88.141667
2023-03-06T16:20:19.078Z,88.183333
2023-03-06T16:25:18.930Z,88.266667
2023-03-06T16:30:19.121Z,88.200000
2023-03-06T16:35:18.988Z,88.276000
2023-03-06T16:40:18.903Z,88.345833
2023-03-06T16:45:19.160Z,88.533333
2023-03-06T16:50:18.801Z,88.641667
2023-03-06T16:55:18.950Z,88.750000
2023-03-06T17:00:19.413Z,88.800000
2023-03-06T17:05:19.565Z,88.766667
2023-03-06T17:10:18.797Z,88.600000
2023-03-06T17:15:18.999Z,88.312500
2023-03-06T17:20:19.036Z,88.100000
2023-03-06T17:25:18.949Z,88.000000
2023-03-06T17:30:18.863Z,88.000000
2023-03-06T17:35:19.246Z,88.033333
2023-03-06T17:40:19.011Z,88.179167
2023-03-06T17:45:18.913Z,88.379167
2023-03-06T17:50:18.936Z,88.416667
2023-03-06T17:55:18.915Z,88.475000
2023-03-06T18:00:19.172Z,88.500000
2023-03-06T18:05:19.641Z,88.500000
2023-03-06T18:10:19.221Z,88.533333
2023-03-06T18:15:18.827Z,88.566667
2023-03-06T18:20:18.809Z,88.412500
2023-03-06T18:25:18.802Z,88.395833
2023-03-06T18:30:18.944Z,88.333333
2023-03-06T18:35:18.918Z,88.400000
2023-03-06T18:40:19.385Z,88.366667
2023-03-06T18:45:18.964Z,88.583333
2023-03-06T18:50:18.832Z,88.745833
2023-03-06T18:55:18.773Z,88.850000
2023-03-06T19:00:18.923Z,88.683333
2023-03-06T19:05:19.057Z,88.337500
2023-03-06T19:10:18.837Z,88.250000
2023-03-06T19:15:19.547Z,88.112500
2023-03-06T19:20:18.983Z,88.133333
2023-03-06T19:25:19.280Z,88.020833
2023-03-06T19:30:18.936Z,88.054167
2023-03-06T19:35:18.882Z,88.100000
2023-03-06T19:40:18.826Z,88.416667
2023-03-06T19:45:18.784Z,88.516667
2023-03-06T19:50:18.870Z,88.575000
2023-03-06T19:55:18.765Z,88.666667
2023-03-06T20:00:18.970Z,88.662500
2023-03-06T20:05:19.069Z,88.676000
2023-03-06T20:10:18.991Z,88.566667
2023-03-06T20:15:18.720Z,88.504167
2023-03-06T20:20:18.840Z,88.308333
2023-03-06T20:25:18.833Z,88.266667
2023-03-06T20:30:18.904Z,88.200000
2023-03-06T20:35:18.905Z,88.025000
2023-03-06T20:40:18.956Z,87.762500
2023-03-06T20:45:18.942Z,87.675000
2023-03-06T20:50:19.229Z,87.541667
2023-03-06T20:55:19.027Z,87.587500
2023-03-06T21:00:19.217Z,87.450000
2023-03-06T21:05:19.734Z,87.362500
2023-03-06T21:10:18.898Z,87.287500
2023-03-06T21:15:19.043Z,87.362500
2023-03-06T21:20:19.207Z,87.491667
2023-03-06T21:25:18.758Z,87.545833
2023-03-06T21:30:19.326Z,87.833333
2023-03-06T21:35:18.726Z,87.766667
2023-03-06T21:40:19.334Z,87.687500
2023-03-06T21:45:18.679Z,87.600000
2023-03-06T21:50:18.923Z,87.695833
2023-03-06T21:55:18.883Z,87.604167
2023-03-06T22:00:18.852Z,87.495833
2023-03-06T22:05:18.843Z,87.345833
2023-03-06T22:10:18.757Z,87.200000
2023-03-06T22:15:18.949Z,87.137500
2023-03-06T22:20:18.762Z,87.333333
2023-03-06T22:25:18.974Z,87.296000
2023-03-06T22:30:19.118Z,87.158333
2023-03-06T22:35:18.846Z,87.287500
2023-03-06T22:40:18.692Z,87.254167
2023-03-06T22:45:18.887Z,87.083333
2023-03-06T22:50:18.675Z,87.084000
2023-03-06T22:55:19.038Z,87.200000
2023-03-06T23:00:19.001Z,86.983333
2023-03-06T23:05:19.617Z,86.733333
2023-03-06T23:10:18.705Z,86.425000
2023-03-06T23:15:18.892Z,86.200000
2023-03-06T23:20:18.943Z,86.650000
2023-03-06T23:25:19.100Z,86.687500
2023-03-06T23:30:18.934Z,87.229167
2023-03-06T23:35:18.782Z,87.395833
2023-03-06T23:40:18.760Z,87.062500
2023-03-06T23:45:19.144Z,87.041667
2023-03-06T23:50:18.694Z,86.983333
2023-03-06T23:55:18.828Z,86.929167
